Time;durP1;ratioP1;P1;durP2;ratioP2;P2;SDS_P1;SDS_P2;PMS_P1;PMS_P2;Temp;Humidity;BMP_temperature;BMP_pressure;BME280_temperature;BME280_humidity;BME280_pressure;Samples;Min_cycle;Max_cycle;Signal;HPM_P1;HPM_P2
2021/07/09 00:01:46;;;;;;;23.53;21.13;;;;;;;;;;5096832;28;20476;-70
2021/07/09 00:04:15;;;;;;;24.10;20.50;;;;;;;;;;5097319;28;20750;-71
2021/07/09 00:06:42;;;;;;;22.87;20.50;;;;;;;;;;5096635;28;20991;-70
2021/07/09 00:09:10;;;;;;;26.60;22.10;;;;;;;;;;5096556;28;20445;-70
2021/07/09 00:11:38;;;;;;;23.73;20.80;;;;;;;;;;5097111;28;20839;-70
2021/07/09 00:14:06;;;;;;;25.83;20.73;;;;;;;;;;5096732;28;20911;-70
2021/07/09 00:16:33;;;;;;;23.37;20.10;;;;;;;;;;5096798;28;20440;-71
2021/07/09 00:19:04;;;;;;;22.57;20.17;;;;;;;;;;5096218;28;20969;-71
2021/07/09 00:21:32;;;;;;;25.50;20.87;;;;;;;;;;5096934;28;20511;-70
2021/07/09 00:23:59;;;;;;;23.50;20.63;;;;;;;;;;5096349;28;20450;-70
2021/07/09 00:26:26;;;;;;;26.80;22.87;;;;;;;;;;5096660;28;20440;-70
2021/07/09 00:28:54;;;;;;;25.03;22.00;;;;;;;;;;5096860;28;20447;-70
2021/07/09 00:31:21;;;;;;;25.67;22.87;;;;;;;;;;5096446;28;20801;-70
2021/07/09 00:33:48;;;;;;;23.90;21.33;;;;;;;;;;5096515;28;20818;-70
2021/07/09 00:36:17;;;;;;;28.10;21.50;;;;;;;;;;5096075;28;20444;-69
2021/07/09 00:38:44;;;;;;;25.23;22.67;;;;;;;;;;5096001;28;20475;-69
2021/07/09 00:41:11;;;;;;;35.73;25.53;;;;;;;;;;5096547;28;20473;-69
2021/07/09 00:43:39;;;;;;;27.87;23.97;;;;;;;;;;5096057;28;20831;-70
2021/07/09 00:46:07;;;;;;;30.00;24.10;;;;;;;;;;5095863;28;20442;-69
2021/07/09 00:48:34;;;;;;;30.73;23.77;;;;;;;;;;5096318;28;20456;-69
2021/07/09 00:51:02;;;;;;;27.13;23.23;;;;;;;;;;5096035;28;20440;-71
2021/07/09 00:53:30;;;;;;;35.47;21.90;;;;;;;;;;5096018;28;20498;-71
2021/07/09 00:55:58;;;;;;;28.80;23.20;;;;;;;;;;5095135;28;20476;-70
2021/07/09 00:58:25;;;;;;;25.20;22.60;;;;;;;;;;5095794;28;20520;-70
2021/07/09 01:00:52;;;;;;;25.43;21.77;;;;;;;;;;5095891;28;20780;-70
2021/07/09 01:03:20;;;;;;;27.10;22.50;;;;;;;;;;5096358;28;20439;-70
2021/07/09 01:05:47;;;;;;;27.80;24.80;;;;;;;;;;5095814;28;20933;-70
2021/07/09 01:08:14;;;;;;;26.97;23.90;;;;;;;;;;5096279;28;20527;-71
2021/07/09 01:10:43;;;;;;;25.93;22.80;;;;;;;;;;5095421;28;20980;-70
2021/07/09 01:13:11;;;;;;;30.53;24.50;;;;;;;;;;5095989;28;20526;-70
2021/07/09 01:15:38;;;;;;;25.83;22.80;;;;;;;;;;5094666;28;20448;-70
2021/07/09 01:18:05;;;;;;;26.30;23.60;;;;;;;;;;5095204;28;20478;-70
2021/07/09 01:20:33;;;;;;;24.43;21.87;;;;;;;;;;5095384;28;20441;-70
2021/07/09 01:23:00;;;;;;;29.13;21.80;;;;;;;;;;5095173;28;20951;-70
2021/07/09 01:25:29;;;;;;;27.00;22.97;;;;;;;;;;5095588;28;20452;-70
2021/07/09 01:27:58;;;;;;;27.50;24.60;;;;;;;;;;5095830;28;20443;-70
2021/07/09 01:30:25;;;;;;;27.80;23.17;;;;;;;;;;5094971;28;20477;-70
2021/07/09 01:32:53;;;;;;;33.07;23.70;;;;;;;;;;5095515;28;20535;-70
2021/07/09 01:35:21;;;;;;;29.40;25.67;;;;;;;;;;5095191;28;20481;-70
2021/07/09 01:37:54;;;;;;;28.77;24.73;;;;;;;;;;5095569;28;20446;-70
2021/07/09 01:40:22;;;;;;;27.53;24.60;;;;;;;;;;5095588;28;20497;-70
2021/07/09 01:42:50;;;;;;;27.43;23.60;;;;;;;;;;5095739;28;20443;-70
2021/07/09 01:45:18;;;;;;;27.10;24.07;;;;;;;;;;5095045;28;20448;-70
2021/07/09 01:47:45;;;;;;;29.00;25.47;;;;;;;;;;5094600;28;20933;-70
2021/07/09 01:50:12;;;;;;;28.50;23.50;;;;;;;;;;5095151;28;20466;-71
2021/07/09 01:52:39;;;;;;;27.67;22.93;;;;;;;;;;5094980;28;20445;-70
2021/07/09 01:55:07;;;;;;;33.00;23.60;;;;;;;;;;5094944;28;20992;-70
2021/07/09 01:57:34;;;;;;;32.03;24.17;;;;;;;;;;5094772;28;20439;-70
2021/07/09 02:00:06;;;;;;;33.00;24.00;;;;;;;;;;5094712;28;20444;-70
2021/07/09 02:02:33;;;;;;;26.23;21.93;;;;;;;;;;5094438;28;20428;-70
2021/07/09 02:05:01;;;;;;;26.53;23.73;;;;;;;;;;5094275;28;20450;-70
2021/07/09 02:07:28;;;;;;;28.53;22.60;;;;;;;;;;5094251;28;20440;-69
2021/07/09 02:09:56;;;;;;;30.87;24.77;;;;;;;;;;5094675;28;20436;-69
2021/07/09 02:12:25;;;;;;;29.03;24.27;;;;;;;;;;5094488;28;20449;-70
2021/07/09 02:14:53;;;;;;;31.60;22.83;;;;;;;;;;5094247;28;20483;-70
2021/07/09 02:17:22;;;;;;;30.60;24.80;;;;;;;;;;5094337;28;20448;-71
2021/07/09 02:19:50;;;;;;;24.43;22.03;;;;;;;;;;5094817;28;20451;-70
2021/07/09 02:22:19;;;;;;;26.73;21.87;;;;;;;;;;5094432;28;20523;-70
2021/07/09 02:24:47;;;;;;;29.53;23.10;;;;;;;;;;5094417;28;20554;-70
2021/07/09 02:27:15;;;;;;;27.00;22.77;;;;;;;;;;5094352;28;20440;-70
2021/07/09 02:29:42;;;;;;;26.03;22.40;;;;;;;;;;5093852;28;20951;-70
2021/07/09 02:32:10;;;;;;;30.17;22.77;;;;;;;;;;5094163;28;20472;-70
2021/07/09 02:34:39;;;;;;;25.27;22.17;;;;;;;;;;5093929;28;20482;-69
2021/07/09 02:37:07;;;;;;;24.83;22.23;;;;;;;;;;5094207;28;20538;-70
2021/07/09 02:39:35;;;;;;;27.03;21.50;;;;;;;;;;5094224;28;20448;-70
2021/07/09 02:42:02;;;;;;;24.50;20.80;;;;;;;;;;5093652;28;20444;-70
2021/07/09 02:44:29;;;;;;;26.00;21.83;;;;;;;;;;5093999;28;20999;-71
2021/07/09 02:46:57;;;;;;;28.47;22.13;;;;;;;;;;5093927;28;20527;-71
2021/07/09 02:49:24;;;;;;;28.03;21.90;;;;;;;;;;5093539;28;20453;-71
2021/07/09 02:51:53;;;;;;;24.93;21.90;;;;;;;;;;5093495;28;20448;-71
2021/07/09 02:54:20;;;;;;;25.83;21.93;;;;;;;;;;5093107;28;20491;-71
2021/07/09 02:56:48;;;;;;;22.20;19.63;;;;;;;;;;5093774;28;20447;-71
2021/07/09 02:59:16;;;;;;;26.20;20.23;;;;;;;;;;5093752;28;20442;-71
2021/07/09 03:01:43;;;;;;;25.23;22.47;;;;;;;;;;5093310;28;20444;-70
2021/07/09 03:04:10;;;;;;;23.17;20.00;;;;;;;;;;5093707;28;20517;-70
2021/07/09 03:06:38;;;;;;;23.47;19.00;;;;;;;;;;5093287;28;20437;-70
2021/07/09 03:09:06;;;;;;;28.83;19.30;;;;;;;;;;5093346;28;20472;-70
2021/07/09 03:11:34;;;;;;;24.80;18.47;;;;;;;;;;5093804;28;20947;-70
2021/07/09 03:14:01;;;;;;;20.43;18.27;;;;;;;;;;5093725;28;20450;-70
2021/07/09 03:16:28;;;;;;;24.87;17.83;;;;;;;;;;5093278;28;20477;-70
2021/07/09 03:18:55;;;;;;;26.87;18.80;;;;;;;;;;5092874;28;20443;-71
2021/07/09 03:21:23;;;;;;;23.17;17.70;;;;;;;;;;5093182;28;20440;-71
2021/07/09 03:23:50;;;;;;;19.37;15.80;;;;;;;;;;5093376;28;20509;-71
2021/07/09 03:26:19;;;;;;;18.20;15.17;;;;;;;;;;5093150;28;20947;-72
2021/07/09 03:28:46;;;;;;;22.90;16.90;;;;;;;;;;5093445;28;20440;-72
2021/07/09 03:31:13;;;;;;;20.00;16.13;;;;;;;;;;5093681;28;20450;-72
2021/07/09 03:33:40;;;;;;;23.53;16.30;;;;;;;;;;5093119;28;20456;-72
2021/07/09 03:36:08;;;;;;;26.90;16.83;;;;;;;;;;5093031;28;20476;-72
2021/07/09 03:38:35;;;;;;;18.47;16.43;;;;;;;;;;5093217;28;20880;-72
2021/07/09 03:41:02;;;;;;;17.27;15.43;;;;;;;;;;5093268;28;20783;-72
2021/07/09 03:43:30;;;;;;;15.87;14.23;;;;;;;;;;5093038;28;20451;-71
2021/07/09 03:45:58;;;;;;;19.10;14.27;;;;;;;;;;5093267;28;20439;-71
2021/07/09 03:48:25;;;;;;;15.67;14.07;;;;;;;;;;5093278;28;20432;-71
2021/07/09 03:50:52;;;;;;;19.20;15.50;;;;;;;;;;5093145;28;20442;-71
2021/07/09 03:53:19;;;;;;;16.10;13.87;;;;;;;;;;5092654;28;20444;-71
2021/07/09 03:55:46;;;;;;;19.43;15.53;;;;;;;;;;5093262;28;20567;-72
2021/07/09 03:58:13;;;;;;;18.13;13.63;;;;;;;;;;5092870;28;20436;-72
2021/07/09 04:00:42;;;;;;;17.20;13.60;;;;;;;;;;5093112;28;20444;-71
2021/07/09 04:03:09;;;;;;;19.30;15.80;;;;;;;;;;5093092;28;20442;-71
2021/07/09 04:05:37;;;;;;;18.10;16.20;;;;;;;;;;5093164;28;20462;-71
2021/07/09 04:08:04;;;;;;;16.23;14.53;;;;;;;;;;5092770;28;20440;-71
2021/07/09 04:10:31;;;;;;;16.90;15.10;;;;;;;;;;5093728;28;20454;-71
2021/07/09 04:12:58;;;;;;;19.43;14.57;;;;;;;;;;5093020;28;20440;-72
2021/07/09 04:15:25;;;;;;;17.80;15.40;;;;;;;;;;5092890;28;20475;-72
2021/07/09 04:17:54;;;;;;;18.37;15.83;;;;;;;;;;5092766;28;20432;-72
2021/07/09 04:20:21;;;;;;;18.70;14.93;;;;;;;;;;5092576;28;20929;-71
2021/07/09 04:22:48;;;;;;;22.60;17.30;;;;;;;;;;5093462;28;20447;-71
2021/07/09 04:25:16;;;;;;;22.10;16.47;;;;;;;;;;5093124;28;20542;-72
2021/07/09 04:27:43;;;;;;;18.27;15.23;;;;;;;;;;5082696;28;20459;-72
2021/07/09 04:30:12;;;;;;;22.37;15.93;;;;;;;;;;5092493;28;20446;-72
2021/07/09 04:32:39;;;;;;;18.97;17.07;;;;;;;;;;5094846;28;20522;-72
2021/07/09 04:35:09;;;;;;;21.00;15.60;;;;;;;;;;5095813;28;20999;-72
2021/07/09 04:37:36;;;;;;;20.97;16.53;;;;;;;;;;5096005;28;20448;-72
2021/07/09 04:40:05;;;;;;;18.80;15.83;;;;;;;;;;5096305;28;20439;-72
2021/07/09 04:42:32;;;;;;;22.67;15.47;;;;;;;;;;5096211;28;20439;-71
2021/07/09 04:44:59;;;;;;;18.90;16.93;;;;;;;;;;5096142;28;20450;-72
2021/07/09 04:47:26;;;;;;;17.60;15.70;;;;;;;;;;5096201;28;20442;-72
2021/07/09 04:49:53;;;;;;;21.07;15.03;;;;;;;;;;5096430;28;20442;-72
2021/07/09 04:52:22;;;;;;;21.87;15.60;;;;;;;;;;5095823;28;20449;-71
2021/07/09 04:54:49;;;;;;;21.93;15.70;;;;;;;;;;5095792;28;20489;-72
2021/07/09 04:57:16;;;;;;;27.80;19.13;;;;;;;;;;5079358;28;20452;-72
2021/07/09 04:59:43;;;;;;;23.43;16.60;;;;;;;;;;5075778;28;20503;-73
2021/07/09 05:02:11;;;;;;;22.07;16.47;;;;;;;;;;5076026;28;20446;-71
2021/07/09 05:04:38;;;;;;;21.53;16.10;;;;;;;;;;5076085;28;20448;-71
2021/07/09 05:07:05;;;;;;;19.90;16.60;;;;;;;;;;5075588;28;20444;-71
2021/07/09 05:09:34;;;;;;;26.50;18.33;;;;;;;;;;5075270;28;20951;-72
2021/07/09 05:12:01;;;;;;;18.53;16.63;;;;;;;;;;5075155;28;20437;-71
2021/07/09 05:14:28;;;;;;;22.07;17.90;;;;;;;;;;5075668;28;20467;-72
2021/07/09 05:16:56;;;;;;;31.83;19.90;;;;;;;;;;5075324;28;20446;-71
2021/07/09 05:19:23;;;;;;;26.00;18.93;;;;;;;;;;5080199;28;20447;-71
2021/07/09 05:21:50;;;;;;;25.43;18.47;;;;;;;;;;5095585;28;20526;-71
2021/07/09 05:24:18;;;;;;;21.07;16.23;;;;;;;;;;5095104;28;20447;-71
2021/07/09 05:26:47;;;;;;;23.97;19.60;;;;;;;;;;5083366;28;20448;-71
2021/07/09 05:29:15;;;;;;;24.30;17.23;;;;;;;;;;5074571;28;20444;-71
2021/07/09 05:31:42;;;;;;;21.53;19.17;;;;;;;;;;5074872;28;20465;-71
2021/07/09 05:34:10;;;;;;;25.00;17.07;;;;;;;;;;5074775;28;20445;-70
2021/07/09 05:36:38;;;;;;;20.13;17.20;;;;;;;;;;5075082;28;20522;-71
2021/07/09 05:39:06;;;;;;;21.80;18.93;;;;;;;;;;5075657;28;20447;-71
2021/07/09 05:41:33;;;;;;;22.40;16.40;;;;;;;;;;5075246;28;20802;-71
2021/07/09 05:44:02;;;;;;;21.13;16.33;;;;;;;;;;5074307;28;20453;-71
2021/07/09 05:46:29;;;;;;;18.10;16.30;;;;;;;;;;5075353;28;20527;-71
2021/07/09 05:48:56;;;;;;;22.27;16.20;;;;;;;;;;5074500;28;20441;-71
2021/07/09 05:51:23;;;;;;;19.13;15.80;;;;;;;;;;5074413;28;20443;-71
2021/07/09 05:53:50;;;;;;;19.73;16.03;;;;;;;;;;5074339;28;21008;-71
2021/07/09 05:56:18;;;;;;;22.50;16.20;;;;;;;;;;5074362;28;20996;-71
2021/07/09 05:58:45;;;;;;;19.30;15.17;;;;;;;;;;5074235;28;20441;-71
2021/07/09 06:01:13;;;;;;;18.17;15.63;;;;;;;;;;5074490;28;20441;-71
2021/07/09 06:03:41;;;;;;;18.07;15.37;;;;;;;;;;5075223;28;20535;-71
2021/07/09 06:06:08;;;;;;;19.37;14.87;;;;;;;;;;5074129;28;20455;-71
2021/07/09 06:08:35;;;;;;;20.70;15.40;;;;;;;;;;5074391;28;20447;-71
2021/07/09 06:11:02;;;;;;;23.47;14.63;;;;;;;;;;5073982;28;20491;-71
2021/07/09 06:13:30;;;;;;;19.10;15.03;;;;;;;;;;5074384;28;20922;-71
2021/07/09 06:15:57;;;;;;;22.83;16.60;;;;;;;;;;5073862;28;20483;-71
2021/07/09 06:18:25;;;;;;;17.40;15.60;;;;;;;;;;5074149;28;20453;-71
2021/07/09 06:20:53;;;;;;;22.37;15.90;;;;;;;;;;5091645;28;20969;-70
2021/07/09 06:23:20;;;;;;;21.63;14.20;;;;;;;;;;5094216;28;20450;-71
2021/07/09 06:25:47;;;;;;;19.90;14.40;;;;;;;;;;5094351;28;20467;-70
2021/07/09 06:28:14;;;;;;;21.27;17.57;;;;;;;;;;5094287;28;20440;-70
2021/07/09 06:30:42;;;;;;;16.87;14.63;;;;;;;;;;5094223;28;20438;-70
2021/07/09 06:33:09;;;;;;;17.50;15.00;;;;;;;;;;5093901;28;20956;-71
2021/07/09 06:35:38;;;;;;;16.73;13.90;;;;;;;;;;5093779;28;20478;-70
2021/07/09 06:38:05;;;;;;;19.27;14.10;;;;;;;;;;5093783;28;20449;-71
2021/07/09 06:40:33;;;;;;;17.63;13.37;;;;;;;;;;5094096;28;20449;-70
2021/07/09 06:43:00;;;;;;;17.73;14.03;;;;;;;;;;5093748;28;20443;-71
2021/07/09 06:45:28;;;;;;;16.43;13.30;;;;;;;;;;5094248;28;20824;-70
2021/07/09 06:47:55;;;;;;;18.40;14.30;;;;;;;;;;5093589;28;20446;-71
2021/07/09 06:50:22;;;;;;;14.70;12.33;;;;;;;;;;5093602;28;20941;-71
2021/07/09 06:52:51;;;;;;;14.33;12.83;;;;;;;;;;5094682;28;20512;-71
2021/07/09 06:55:18;;;;;;;19.20;11.10;;;;;;;;;;5093314;28;20487;-71
2021/07/09 06:57:48;;;;;;;24.07;13.77;;;;;;;;;;5093820;28;20501;-71
2021/07/09 07:00:17;;;;;;;15.30;11.67;;;;;;;;;;5094308;28;20444;-71
2021/07/09 07:02:44;;;;;;;15.73;13.10;;;;;;;;;;5093644;28;20501;-71
2021/07/09 07:05:12;;;;;;;13.80;12.10;;;;;;;;;;5094001;28;20531;-70
2021/07/09 07:07:39;;;;;;;14.50;10.20;;;;;;;;;;5093728;28;20446;-71
2021/07/09 07:10:09;;;;;;;14.00;11.70;;;;;;;;;;5093739;28;20425;-71
2021/07/09 07:12:36;;;;;;;22.10;12.57;;;;;;;;;;5093714;28;20452;-71
2021/07/09 07:15:05;;;;;;;17.43;12.30;;;;;;;;;;5093979;28;20868;-71
2021/07/09 07:17:32;;;;;;;13.50;10.80;;;;;;;;;;5093613;28;20798;-71
2021/07/09 07:20:00;;;;;;;15.13;11.40;;;;;;;;;;5093035;28;20456;-71
2021/07/09 07:22:27;;;;;;;15.07;11.23;;;;;;;;;;5093628;28;20466;-71
2021/07/09 07:24:54;;;;;;;12.77;11.07;;;;;;;;;;5093552;28;20454;-71
2021/07/09 07:27:24;;;;;;;14.63;10.57;;;;;;;;;;5093438;28;20504;-71
2021/07/09 07:29:52;;;;;;;12.83;11.27;;;;;;;;;;5093545;28;20849;-71
2021/07/09 07:32:19;;;;;;;22.27;12.53;;;;;;;;;;5093827;28;20453;-71
2021/07/09 07:34:46;;;;;;;12.43;10.10;;;;;;;;;;5093124;28;20456;-71
2021/07/09 07:37:14;;;;;;;10.90;9.80;;;;;;;;;;5093397;28;20490;-71
2021/07/09 07:39:41;;;;;;;13.53;10.23;;;;;;;;;;5093360;28;20436;-71
2021/07/09 07:42:09;;;;;;;13.73;11.00;;;;;;;;;;5093308;28;20938;-71
2021/07/09 07:44:37;;;;;;;15.70;10.50;;;;;;;;;;5093067;28;20440;-71
2021/07/09 07:47:05;;;;;;;12.07;10.83;;;;;;;;;;5093468;28;20553;-71
2021/07/09 07:49:32;;;;;;;14.80;10.87;;;;;;;;;;5093280;28;20457;-71
2021/07/09 07:52:00;;;;;;;14.30;10.17;;;;;;;;;;5093377;28;20554;-71
2021/07/09 07:54:29;;;;;;;13.37;10.90;;;;;;;;;;5093081;28;20564;-70
2021/07/09 07:56:56;;;;;;;14.50;11.60;;;;;;;;;;5093529;28;20520;-70
2021/07/09 07:59:23;;;;;;;13.70;12.00;;;;;;;;;;5093260;28;20444;-70
2021/07/09 08:01:52;;;;;;;14.87;11.70;;;;;;;;;;5093525;28;20479;-71
2021/07/09 08:04:19;;;;;;;14.70;11.37;;;;;;;;;;5093001;28;20799;-71
2021/07/09 08:06:46;;;;;;;18.27;11.40;;;;;;;;;;5095822;28;20448;-70
2021/07/09 08:09:13;;;;;;;15.70;11.07;;;;;;;;;;5096893;28;20446;-71
2021/07/09 08:11:41;;;;;;;16.17;13.03;;;;;;;;;;5096861;28;20446;-71
2021/07/09 08:14:08;;;;;;;15.73;11.50;;;;;;;;;;5096510;28;20442;-71
2021/07/09 08:16:35;;;;;;;17.27;12.23;;;;;;;;;;5096695;28;20511;-71
2021/07/09 08:19:04;;;;;;;11.77;10.50;;;;;;;;;;5096314;28;20453;-71
2021/07/09 08:21:32;;;;;;;20.40;11.87;;;;;;;;;;5096742;28;20455;-70
2021/07/09 08:23:59;;;;;;;18.27;14.10;;;;;;;;;;5096731;28;20460;-70
2021/07/09 08:26:26;;;;;;;19.73;12.87;;;;;;;;;;5096302;28;20448;-70
2021/07/09 08:28:53;;;;;;;20.03;13.20;;;;;;;;;;5096662;28;20473;-71
2021/07/09 08:31:22;;;;;;;14.33;12.40;;;;;;;;;;5096514;28;20440;-71
2021/07/09 08:33:49;;;;;;;16.87;12.30;;;;;;;;;;5096222;28;20433;-71
2021/07/09 08:36:18;;;;;;;19.00;12.43;;;;;;;;;;5096589;28;20477;-70
2021/07/09 08:38:45;;;;;;;14.60;12.80;;;;;;;;;;5096292;28;20934;-70
2021/07/09 08:41:13;;;;;;;19.30;13.90;;;;;;;;;;5096359;28;20441;-71
2021/07/09 08:43:40;;;;;;;16.47;14.00;;;;;;;;;;5096064;28;20437;-71
2021/07/09 08:46:07;;;;;;;17.37;13.30;;;;;;;;;;5095989;28;20481;-70
2021/07/09 08:48:36;;;;;;;18.50;13.10;;;;;;;;;;5095883;28;20453;-70
2021/07/09 08:51:03;;;;;;;19.90;15.10;;;;;;;;;;5095799;28;20449;-70
2021/07/09 08:53:31;;;;;;;19.87;14.07;;;;;;;;;;5095847;28;21493;-71
2021/07/09 08:55:59;;;;;;;17.97;15.20;;;;;;;;;;5095780;28;20465;-71
2021/07/09 08:58:26;;;;;;;19.73;13.77;;;;;;;;;;5096013;28;20443;-71
2021/07/09 09:00:54;;;;;;;19.20;15.20;;;;;;;;;;5096113;28;20444;-70
2021/07/09 09:03:23;;;;;;;15.50;13.90;;;;;;;;;;5095586;28;20524;-70
2021/07/09 09:05:50;;;;;;;18.47;15.27;;;;;;;;;;5095636;28;20921;-70
2021/07/09 09:08:18;;;;;;;22.03;17.40;;;;;;;;;;5095941;28;20491;-70
2021/07/09 09:10:47;;;;;;;22.30;17.00;;;;;;;;;;5095560;28;20523;-70
2021/07/09 09:13:15;;;;;;;22.93;17.30;;;;;;;;;;5095341;28;20446;-70
2021/07/09 09:15:44;;;;;;;28.97;19.37;;;;;;;;;;5095616;28;20448;-70
2021/07/09 09:18:21;;;;;;;24.90;18.40;;;;;;;;;;5094512;28;20449;-71
2021/07/09 09:20:55;;;;;;;22.03;18.33;;;;;;;;;;5095213;28;20437;-70
2021/07/09 09:23:22;;;;;;;18.70;16.80;;;;;;;;;;5095502;28;20928;-70
2021/07/09 09:25:51;;;;;;;20.90;18.40;;;;;;;;;;5095121;28;20444;-70
2021/07/09 09:28:18;;;;;;;23.07;19.00;;;;;;;;;;5095123;28;20501;-70
2021/07/09 09:30:46;;;;;;;23.07;19.37;;;;;;;;;;5095760;28;20468;-70
2021/07/09 09:33:14;;;;;;;28.73;21.83;;;;;;;;;;5095078;28;20441;-70
2021/07/09 09:35:42;;;;;;;24.80;20.70;;;;;;;;;;5095044;28;20539;-70
2021/07/09 09:38:10;;;;;;;21.53;18.67;;;;;;;;;;5095466;28;20480;-70
2021/07/09 09:40:38;;;;;;;26.20;20.20;;;;;;;;;;5095377;28;20537;-70
2021/07/09 09:43:10;;;;;;;26.97;21.60;;;;;;;;;;5095166;28;20542;-70
2021/07/09 09:45:38;;;;;;;23.10;19.50;;;;;;;;;;5094755;28;20982;-70
2021/07/09 09:48:06;;;;;;;23.63;19.10;;;;;;;;;;5095145;28;20457;-70
2021/07/09 09:50:41;;;;;;;25.83;20.37;;;;;;;;;;5095174;28;20440;-70
2021/07/09 09:53:08;;;;;;;25.83;20.80;;;;;;;;;;5095576;28;20876;-70
2021/07/09 09:55:35;;;;;;;24.87;18.33;;;;;;;;;;5094928;28;20477;-70
2021/07/09 09:58:11;;;;;;;24.60;20.00;;;;;;;;;;5094475;28;20577;-70
2021/07/09 10:00:39;;;;;;;23.87;21.13;;;;;;;;;;5095259;28;20445;-70
2021/07/09 10:03:06;;;;;;;22.33;20.03;;;;;;;;;;5094427;28;20450;-71
2021/07/09 10:05:35;;;;;;;22.90;20.37;;;;;;;;;;5094739;28;20454;-70
2021/07/09 10:08:03;;;;;;;22.53;19.73;;;;;;;;;;5094775;28;20541;-70
2021/07/09 10:10:31;;;;;;;22.67;20.17;;;;;;;;;;5094598;28;20449;-70
2021/07/09 10:12:58;;;;;;;22.53;20.10;;;;;;;;;;5094244;28;20445;-70
2021/07/09 10:15:27;;;;;;;26.50;19.70;;;;;;;;;;5094724;28;20436;-70
2021/07/09 10:17:55;;;;;;;21.90;19.57;;;;;;;;;;5094072;28;21020;-70
2021/07/09 10:20:22;;;;;;;22.33;18.30;;;;;;;;;;5094400;28;20528;-70
2021/07/09 10:22:50;;;;;;;20.07;17.97;;;;;;;;;;5094549;28;20880;-70
2021/07/09 10:25:18;;;;;;;22.73;17.20;;;;;;;;;;5094417;28;20561;-71
2021/07/09 10:27:46;;;;;;;19.27;17.20;;;;;;;;;;5094185;28;20476;-70
2021/07/09 10:30:13;;;;;;;19.90;17.70;;;;;;;;;;5094091;28;21038;-70
2021/07/09 10:32:43;;;;;;;16.83;15.03;;;;;;;;;;5094089;28;20953;-70
2021/07/09 10:35:11;;;;;;;16.30;14.70;;;;;;;;;;5093929;28;20530;-70
2021/07/09 10:37:38;;;;;;;18.63;14.10;;;;;;;;;;5094133;28;20477;-70
2021/07/09 10:40:07;;;;;;;23.43;15.50;;;;;;;;;;5094197;28;20529;-71
2021/07/09 10:42:40;;;;;;;15.30;13.80;;;;;;;;;;5093762;28;20446;-70
2021/07/09 10:45:11;;;;;;;15.50;12.77;;;;;;;;;;5094057;28;20426;-70
2021/07/09 10:47:39;;;;;;;13.43;12.03;;;;;;;;;;5093936;28;20470;-70
2021/07/09 10:50:08;;;;;;;13.07;11.10;;;;;;;;;;5093961;28;21012;-70
2021/07/09 10:52:46;;;;;;;13.20;10.83;;;;;;;;;;5093573;28;20443;-70
2021/07/09 10:55:31;;;;;;;14.20;12.77;;;;;;;;;;5094413;28;20511;-70
2021/07/09 10:58:18;;;;;;;12.93;11.40;;;;;;;;;;5093486;28;20489;-70
2021/07/09 11:00:47;;;;;;;12.33;11.20;;;;;;;;;;5094112;28;20458;-70
2021/07/09 11:03:23;;;;;;;14.77;12.20;;;;;;;;;;5093459;28;20447;-70
2021/07/09 11:05:55;;;;;;;15.70;11.50;;;;;;;;;;5094040;28;20895;-70
2021/07/09 11:08:53;;;;;;;10.60;9.60;;;;;;;;;;5093789;28;20454;-70
2021/07/09 11:11:30;;;;;;;15.10;10.83;;;;;;;;;;5051512;28;20531;-70
2021/07/09 11:13:59;;;;;;;9.80;8.23;;;;;;;;;;5087770;28;20761;-69
2021/07/09 11:16:30;;;;;;;9.87;8.87;;;;;;;;;;5093181;28;20438;-70
2021/07/09 11:18:58;;;;;;;10.97;9.17;;;;;;;;;;5093615;28;20434;-70
2021/07/09 11:21:44;;;;;;;8.03;7.23;;;;;;;;;;5093150;28;20482;-70
2021/07/09 11:24:13;;;;;;;10.73;9.50;;;;;;;;;;5093595;28;20453;-69
2021/07/09 11:26:42;;;;;;;8.80;7.90;;;;;;;;;;5093789;28;20482;-70
2021/07/09 11:29:20;;;;;;;10.60;7.30;;;;;;;;;;5093122;28;20538;-69
2021/07/09 11:31:47;;;;;;;8.77;7.87;;;;;;;;;;5093178;28;20925;-70
2021/07/09 11:34:15;;;;;;;13.30;8.50;;;;;;;;;;5093921;28;20530;-70
2021/07/09 11:36:43;;;;;;;8.23;7.53;;;;;;;;;;5092951;28;20445;-70
2021/07/09 11:39:11;;;;;;;9.40;8.50;;;;;;;;;;5092979;28;20940;-70
2021/07/09 11:41:49;;;;;;;8.50;7.70;;;;;;;;;;5096192;28;20939;-70
2021/07/09 11:44:17;;;;;;;7.20;6.60;;;;;;;;;;5097488;28;20887;-70
2021/07/09 11:46:47;;;;;;;8.30;7.40;;;;;;;;;;5097485;28;20530;-69
2021/07/09 11:49:17;;;;;;;7.10;6.40;;;;;;;;;;5097672;28;20442;-70
2021/07/09 11:51:47;;;;;;;9.90;5.57;;;;;;;;;;5096909;28;20537;-69
2021/07/09 11:54:14;;;;;;;7.13;6.53;;;;;;;;;;5096957;28;20577;-69
2021/07/09 11:56:42;;;;;;;6.53;5.93;;;;;;;;;;5097184;28;20481;-69
2021/07/09 11:59:17;;;;;;;8.93;7.80;;;;;;;;;;5097160;28;20431;-69
2021/07/09 12:01:44;;;;;;;7.63;6.93;;;;;;;;;;5097273;28;20491;-69
2021/07/09 12:04:12;;;;;;;7.90;7.00;;;;;;;;;;5096810;28;20501;-69
2021/07/09 12:06:39;;;;;;;7.13;6.43;;;;;;;;;;5096996;28;20467;-70
2021/07/09 12:09:06;;;;;;;8.80;6.83;;;;;;;;;;5096670;28;20448;-70
2021/07/09 12:11:33;;;;;;;10.67;8.60;;;;;;;;;;5096881;28;20492;-70
2021/07/09 12:14:07;;;;;;;10.03;9.03;;;;;;;;;;5096492;28;20535;-70
2021/07/09 12:16:36;;;;;;;8.90;8.03;;;;;;;;;;5096497;28;21012;-70
2021/07/09 12:19:03;;;;;;;9.40;8.40;;;;;;;;;;5096570;28;20476;-70
2021/07/09 12:21:30;;;;;;;11.33;8.10;;;;;;;;;;5096840;28;20467;-71
2021/07/09 12:24:05;;;;;;;9.20;8.40;;;;;;;;;;5096464;28;20896;-70
2021/07/09 12:26:32;;;;;;;10.17;8.07;;;;;;;;;;5096335;28;20793;-70
2021/07/09 12:29:00;;;;;;;8.33;7.27;;;;;;;;;;5096234;28;20522;-70
2021/07/09 12:31:27;;;;;;;9.50;7.93;;;;;;;;;;5096218;28;20443;-69
2021/07/09 12:33:56;;;;;;;9.07;7.40;;;;;;;;;;5096262;28;20985;-69
2021/07/09 12:36:25;;;;;;;7.87;7.13;;;;;;;;;;5096111;28;20444;-70
2021/07/09 12:39:00;;;;;;;11.60;8.73;;;;;;;;;;5096299;28;20456;-70
2021/07/09 12:41:32;;;;;;;8.20;7.50;;;;;;;;;;5096339;28;20448;-70
2021/07/09 12:43:59;;;;;;;10.43;6.20;;;;;;;;;;5096094;28;20488;-70
2021/07/09 12:46:27;;;;;;;10.40;7.73;;;;;;;;;;5095991;28;20444;-70
2021/07/09 12:49:00;;;;;;;8.10;7.30;;;;;;;;;;5096496;28;20452;-70
2021/07/09 12:51:27;;;;;;;8.80;7.40;;;;;;;;;;5095575;28;20436;-70
2021/07/09 12:53:55;;;;;;;10.07;9.07;;;;;;;;;;5094964;28;20479;-70
2021/07/09 12:56:23;;;;;;;9.80;8.53;;;;;;;;;;5095739;28;20439;-72
2021/07/09 12:58:58;;;;;;;10.00;9.00;;;;;;;;;;5096218;28;20479;-73
2021/07/09 13:01:26;;;;;;;11.70;8.57;;;;;;;;;;5095955;28;20431;-69
2021/07/09 13:03:53;;;;;;;8.90;8.10;;;;;;;;;;5096000;28;20436;-69
2021/07/09 13:06:27;;;;;;;11.33;8.93;;;;;;;;;;5095774;28;20436;-69
2021/07/09 13:09:09;;;;;;;8.40;7.60;;;;;;;;;;5095622;28;20948;-70
2021/07/09 13:11:37;;;;;;;9.60;8.60;;;;;;;;;;5095542;28;20471;-69
2021/07/09 13:14:05;;;;;;;9.83;8.87;;;;;;;;;;5096444;28;20440;-69
2021/07/09 13:16:32;;;;;;;9.43;8.50;;;;;;;;;;5095339;28;20438;-69
2021/07/09 13:19:01;;;;;;;8.90;8.17;;;;;;;;;;5092149;28;20574;-70
2021/07/09 13:21:30;;;;;;;12.50;8.47;;;;;;;;;;5075241;28;20693;-71
2021/07/09 13:24:05;;;;;;;8.27;7.50;;;;;;;;;;5074945;28;20547;-70
2021/07/09 13:26:35;;;;;;;10.20;8.20;;;;;;;;;;5074542;28;20427;-70
2021/07/09 13:29:03;;;;;;;9.30;7.43;;;;;;;;;;5075067;28;20434;-70
2021/07/09 13:31:30;;;;;;;9.50;8.60;;;;;;;;;;5075316;28;20440;-70
2021/07/09 13:33:57;;;;;;;8.77;7.87;;;;;;;;;;5074877;28;20448;-70
2021/07/09 13:36:35;;;;;;;10.20;9.20;;;;;;;;;;5074753;28;20513;-70
2021/07/09 13:39:03;;;;;;;8.70;7.80;;;;;;;;;;5074701;28;20476;-69
2021/07/09 13:41:30;;;;;;;9.37;8.40;;;;;;;;;;5075086;28;20436;-70
2021/07/09 13:43:57;;;;;;;9.73;8.70;;;;;;;;;;5074974;28;20447;-70
2021/07/09 13:46:25;;;;;;;11.17;8.93;;;;;;;;;;5075376;28;20960;-70
2021/07/09 13:48:52;;;;;;;10.63;9.60;;;;;;;;;;5074615;28;20940;-70
2021/07/09 13:51:20;;;;;;;9.67;8.70;;;;;;;;;;5074669;28;20455;-70
2021/07/09 13:53:48;;;;;;;8.83;7.97;;;;;;;;;;5074242;28;20468;-69
2021/07/09 13:56:16;;;;;;;10.33;7.93;;;;;;;;;;5075056;28;20443;-70
2021/07/09 13:58:43;;;;;;;11.87;8.37;;;;;;;;;;5074346;28;20476;-71
2021/07/09 14:01:10;;;;;;;9.53;8.60;;;;;;;;;;5074587;28;21041;-69
2021/07/09 14:03:38;;;;;;;8.80;7.97;;;;;;;;;;5073825;28;20495;-70
2021/07/09 14:06:06;;;;;;;10.50;8.20;;;;;;;;;;5074436;28;20444;-69
2021/07/09 14:08:33;;;;;;;11.63;7.80;;;;;;;;;;5074496;28;20607;-69
2021/07/09 14:11:02;;;;;;;10.53;9.17;;;;;;;;;;5074299;28;20444;-71
2021/07/09 14:13:30;;;;;;;8.90;8.00;;;;;;;;;;5073739;28;20445;-70
2021/07/09 14:15:57;;;;;;;7.77;7.07;;;;;;;;;;5074724;28;20526;-70
2021/07/09 14:18:25;;;;;;;8.43;7.67;;;;;;;;;;5073924;28;20662;-70
2021/07/09 14:20:52;;;;;;;11.10;8.50;;;;;;;;;;5091566;28;20865;-70
2021/07/09 14:23:20;;;;;;;9.20;7.97;;;;;;;;;;5094323;28;20446;-70
2021/07/09 14:25:47;;;;;;;9.00;8.20;;;;;;;;;;5094372;28;20438;-70
2021/07/09 14:28:16;;;;;;;9.90;7.80;;;;;;;;;;5094315;28;20444;-70